Time;durP1;ratioP1;P1;durP2;ratioP2;P2;SDS_P1;SDS_P2;PMS_P1;PMS_P2;Temp;Humidity;BMP_temperature;BMP_pressure;BME280_temperature;BME280_humidity;BME280_pressure;Samples;Min_cycle;Max_cycle;Signal;HPM_P1;HPM_P2
2024/01/17 00:02:00;;;;;;;12.77;5.83;;;;;;;5.92;48.16;100204.00;5049789;28;20032;-72
2024/01/17 00:04:27;;;;;;;12.07;6.77;;;;;;;5.63;48.69;100204.88;5050193;28;20033;-71
2024/01/17 00:06:53;;;;;;;14.20;6.27;;;;;;;5.61;49.05;100202.28;5050792;28;20028;-71
2024/01/17 00:09:18;;;;;;;20.00;6.13;;;;;;;6.47;46.68;100205.69;5050902;28;20025;-72
2024/01/17 00:11:44;;;;;;;17.63;6.00;;;;;;;6.54;46.94;100197.00;5050347;28;20456;-72
2024/01/17 00:14:10;;;;;;;12.87;5.37;;;;;;;5.89;47.59;100193.63;5050906;28;20037;-72
2024/01/17 00:16:36;;;;;;;11.27;6.50;;;;;;;6.15;46.77;100195.38;5049078;28;20036;-72
2024/01/17 00:19:01;;;;;;;16.20;6.17;;;;;;;6.23;47.56;100194.47;5049728;28;20135;-72
2024/01/17 00:21:27;;;;;;;20.47;7.43;;;;;;;6.44;46.60;100184.88;5050877;28;20476;-71
2024/01/17 00:23:53;;;;;;;10.13;5.47;;;;;;;6.76;45.59;100182.19;5050394;28;20033;-72
2024/01/17 00:26:18;;;;;;;27.43;6.73;;;;;;;6.88;45.36;100186.47;5050329;28;20484;-72
2024/01/17 00:28:44;;;;;;;12.37;6.03;;;;;;;7.08;44.94;100180.28;5050202;28;20048;-71
2024/01/17 00:31:09;;;;;;;14.63;6.53;;;;;;;7.08;45.08;100172.47;5050789;28;20032;-72
2024/01/17 00:33:35;;;;;;;17.20;6.03;;;;;;;6.28;46.77;100179.75;5049955;28;20388;-72
2024/01/17 00:36:01;;;;;;;12.80;6.20;;;;;;;7.28;44.25;100169.72;5050936;28;20028;-72
2024/01/17 00:38:26;;;;;;;27.80;7.47;;;;;;;6.32;46.00;100169.34;5049381;28;20518;-72
2024/01/17 00:40:51;;;;;;;14.73;7.10;;;;;;;6.12;46.28;100172.88;5048524;28;20035;-72
2024/01/17 00:43:17;;;;;;;20.60;6.37;;;;;;;6.11;46.46;100165.94;5050529;28;20039;-71
2024/01/17 00:45:43;;;;;;;14.93;6.03;;;;;;;6.34;45.74;100162.44;5050451;28;20028;-72
2024/01/17 00:48:13;;;;;;;10.83;5.50;;;;;;;6.66;45.17;100153.66;5049822;28;20455;-72
2024/01/17 00:50:39;;;;;;;14.43;5.70;;;;;;;6.78;44.85;100153.59;5039686;28;20428;-71
2024/01/17 00:53:05;;;;;;;11.63;5.33;;;;;;;6.27;46.45;100151.22;5048449;28;20035;-72
2024/01/17 00:55:31;;;;;;;11.23;5.10;;;;;;;6.42;46.21;100139.91;5049599;28;20056;-72
2024/01/17 00:57:56;;;;;;;14.53;6.20;;;;;;;6.31;45.68;100133.91;5050669;28;20059;-72
2024/01/17 01:00:22;;;;;;;8.70;4.97;;;;;;;6.95;44.50;100115.38;5048775;28;20473;-71
2024/01/17 01:02:47;;;;;;;10.87;5.80;;;;;;;6.47;45.11;100114.81;5050301;28;20060;-72
2024/01/17 01:05:13;;;;;;;15.03;5.87;;;;;;;6.76;44.96;100119.84;5052294;28;20075;-71
2024/01/17 01:07:38;;;;;;;16.33;6.60;;;;;;;7.02;44.46;100111.03;5051907;28;20063;-72
2024/01/17 01:10:04;;;;;;;8.27;4.93;;;;;;;6.54;45.19;100108.69;5054604;28;20036;-72
2024/01/17 01:12:29;;;;;;;12.83;5.03;;;;;;;7.48;43.09;100109.78;5052463;28;20041;-72
2024/01/17 01:14:54;;;;;;;9.73;5.53;;;;;;;7.80;42.15;100113.81;5053365;28;20064;-72
2024/01/17 01:17:20;;;;;;;9.60;5.57;;;;;;;7.70;42.45;100109.59;5053185;28;20108;-72
2024/01/17 01:19:45;;;;;;;16.53;6.53;;;;;;;7.58;42.65;100105.34;5053481;28;20036;-72
2024/01/17 01:22:11;;;;;;;10.13;5.93;;;;;;;7.08;43.09;100102.31;5053222;28;20490;-72
2024/01/17 01:24:36;;;;;;;11.43;4.90;;;;;;;7.41;43.13;100097.72;5053763;28;20043;-72
2024/01/17 01:27:02;;;;;;;10.30;4.97;;;;;;;6.69;44.67;100117.28;5052923;28;20028;-72
2024/01/17 01:29:27;;;;;;;15.63;5.93;;;;;;;6.47;44.99;100101.81;5053271;28;20029;-72
2024/01/17 01:31:53;;;;;;;13.30;5.70;;;;;;;6.07;45.78;100091.56;5053455;28;20025;-72
2024/01/17 01:34:18;;;;;;;10.87;6.57;;;;;;;5.65;46.73;100093.41;5052440;28;20021;-71
2024/01/17 01:36:43;;;;;;;19.13;6.90;;;;;;;6.84;44.94;100086.03;5053029;28;20384;-71
2024/01/17 01:39:09;;;;;;;12.43;6.93;;;;;;;6.31;45.81;100082.00;5052277;28;20071;-71
2024/01/17 01:41:34;;;;;;;17.07;6.53;;;;;;;6.49;45.72;100086.22;5053173;28;20056;-71
2024/01/17 01:44:00;;;;;;;15.33;7.87;;;;;;;6.44;45.35;100081.03;5053008;28;20029;-72
2024/01/17 01:46:30;;;;;;;19.07;6.63;;;;;;;6.21;46.26;100076.84;5052339;28;20052;-72
2024/01/17 01:48:57;;;;;;;10.27;5.70;;;;;;;5.84;47.32;100084.72;5052283;28;20039;-71
2024/01/17 01:51:23;;;;;;;13.07;6.23;;;;;;;6.19;46.13;100080.31;5047780;28;20517;-71
2024/01/17 01:53:52;;;;;;;15.33;6.93;;;;;;;6.13;46.76;100085.50;5033292;28;20113;-71
2024/01/17 01:56:20;;;;;;;19.17;7.43;;;;;;;5.87;47.71;100066.53;5051709;28;20036;-71
2024/01/17 01:58:48;;;;;;;11.00;6.10;;;;;;;5.43;48.92;100065.75;5052415;28;20358;-71
2024/01/17 02:01:15;;;;;;;10.30;5.83;;;;;;;5.60;47.82;100060.56;5053348;28;20280;-71
2024/01/17 02:03:43;;;;;;;15.20;6.83;;;;;;;5.46;47.84;100056.28;5047437;28;20756;-71
2024/01/17 02:06:09;;;;;;;12.83;7.17;;;;;;;5.64;47.97;100055.38;5049563;28;20418;-71
2024/01/17 02:08:35;;;;;;;14.83;6.60;;;;;;;5.87;47.12;100045.78;5051335;28;20282;-71
2024/01/17 02:11:01;;;;;;;20.83;6.77;;;;;;;5.98;47.24;100044.94;5051214;28;20722;-71
2024/01/17 02:13:26;;;;;;;12.80;6.17;;;;;;;5.61;47.29;100041.53;5053145;28;20037;-72
2024/01/17 02:15:52;;;;;;;18.50;7.57;;;;;;;5.81;47.56;100026.78;5046788;28;20037;-71
2024/01/17 02:18:17;;;;;;;13.03;6.03;;;;;;;5.75;47.28;100027.66;5039452;28;20036;-71
2024/01/17 02:20:43;;;;;;;16.63;7.13;;;;;;;5.48;47.64;100023.41;5048021;28;20029;-71
2024/01/17 02:23:30;;;;;;;12.53;6.60;;;;;;;6.08;47.65;100015.47;5052594;28;20020;-72
2024/01/17 02:25:57;;;;;;;18.10;7.17;;;;;;;6.08;46.90;100016.31;5051982;28;20370;-72
2024/01/17 02:28:24;;;;;;;16.33;6.53;;;;;;;6.65;45.46;100009.06;5053098;28;20299;-71
2024/01/17 02:30:51;;;;;;;14.03;6.77;;;;;;;5.86;46.81;100005.16;5052227;28;20283;-71
2024/01/17 02:33:16;;;;;;;13.33;6.43;;;;;;;6.06;46.33;100006.84;5051785;28;20378;-73
2024/01/17 02:35:42;;;;;;;19.00;7.23;;;;;;;5.12;48.70;100000.13;5050450;28;20363;-71
2024/01/17 02:38:07;;;;;;;17.37;6.50;;;;;;;5.74;47.41;100010.38;5052435;28;20546;-71
2024/01/17 02:40:33;;;;;;;12.17;6.90;;;;;;;5.83;47.19;100005.16;5049780;28;20029;-71
2024/01/17 02:42:59;;;;;;;16.07;7.03;;;;;;;6.07;46.69;99983.47;5052088;28;20025;-71
2024/01/17 02:45:24;;;;;;;9.97;5.90;;;;;;;5.91;46.84;99987.00;5052155;28;20035;-71
2024/01/17 02:47:49;;;;;;;15.10;6.53;;;;;;;5.90;46.79;99980.91;5050703;28;20049;-71
2024/01/17 02:50:15;;;;;;;10.47;5.80;;;;;;;5.47;47.86;99975.03;5052390;28;20396;-71
2024/01/17 02:52:44;;;;;;;15.57;7.00;;;;;;;5.77;47.34;99974.94;5051449;28;20148;-71
2024/01/17 02:55:11;;;;;;;11.40;5.97;;;;;;;6.02;47.11;99979.19;5050387;28;20025;-71
2024/01/17 02:57:37;;;;;;;13.77;6.10;;;;;;;6.09;46.39;99976.53;5051649;28;20271;-71
2024/01/17 03:00:05;;;;;;;20.20;7.80;;;;;;;5.87;46.80;99962.78;5051518;28;20267;-71
2024/01/17 03:02:30;;;;;;;11.83;6.27;;;;;;;6.18;45.72;99954.88;5050386;28;20025;-71
2024/01/17 03:04:56;;;;;;;11.53;6.47;;;;;;;6.15;46.23;99960.06;5049704;28;20282;-71
2024/01/17 03:07:21;;;;;;;12.17;6.43;;;;;;;6.06;46.39;99965.34;5046612;28;20056;-71
2024/01/17 03:09:47;;;;;;;17.20;5.83;;;;;;;5.87;46.69;99960.19;5031676;28;20112;-71
2024/01/17 03:12:12;;;;;;;16.03;6.90;;;;;;;5.44;47.86;99955.19;5048663;28;20033;-71
2024/01/17 03:14:37;;;;;;;11.67;6.80;;;;;;;5.61;48.00;99942.16;5049316;28;20385;-71
2024/01/17 03:17:03;;;;;;;14.23;6.20;;;;;;;6.12;46.36;99934.16;5051953;28;20094;-71
2024/01/17 03:19:31;;;;;;;12.20;7.50;;;;;;;6.21;46.64;99925.44;5051560;28;20040;-71
2024/01/17 03:21:57;;;;;;;11.67;6.20;;;;;;;5.76;47.01;99920.47;5051124;28;20033;-71
2024/01/17 03:24:22;;;;;;;13.47;6.77;;;;;;;6.40;46.39;99908.00;5051492;28;20609;-71
2024/01/17 03:26:48;;;;;;;11.77;6.50;;;;;;;6.28;46.53;99915.00;5050756;28;20033;-71
2024/01/17 03:29:13;;;;;;;11.80;6.67;;;;;;;5.37;47.89;99911.97;5049533;28;20021;-70
2024/01/17 03:31:38;;;;;;;19.50;6.60;;;;;;;6.41;45.79;99904.53;5046239;28;20443;-71
2024/01/17 03:34:04;;;;;;;13.97;6.03;;;;;;;6.48;45.97;99903.59;5031838;28;20018;-71
2024/01/17 03:36:30;;;;;;;11.80;6.43;;;;;;;6.60;44.97;99903.50;5048535;28;20029;-71
2024/01/17 03:38:55;;;;;;;11.47;5.73;;;;;;;6.97;44.54;99895.38;5050171;28;20400;-70
2024/01/17 03:41:21;;;;;;;14.70;5.77;;;;;;;6.87;44.68;99898.94;5051038;28;20063;-70
2024/01/17 03:43:46;;;;;;;12.20;5.73;;;;;;;7.43;43.76;99887.94;5048972;28;20453;-71
2024/01/17 03:46:12;;;;;;;11.07;6.20;;;;;;;6.87;44.67;99888.56;5050026;28;20016;-71
2024/01/17 03:48:37;;;;;;;10.17;5.83;;;;;;;6.90;44.34;99875.53;5050562;28;20032;-71
2024/01/17 03:51:03;;;;;;;12.07;5.90;;;;;;;7.01;44.07;99875.41;5050202;28;20071;-71
2024/01/17 03:53:29;;;;;;;14.40;6.53;;;;;;;7.23;43.84;99868.25;5051140;28;20025;-71
2024/01/17 03:55:54;;;;;;;12.90;6.20;;;;;;;6.25;45.62;99857.94;5051163;28;20180;-71
2024/01/17 03:58:20;;;;;;;16.17;7.27;;;;;;;6.48;45.17;99843.88;5050494;28;20112;-71
2024/01/17 04:00:45;;;;;;;14.03;6.03;;;;;;;6.70;44.91;99833.31;5050254;28;20047;-71
2024/01/17 04:03:14;;;;;;;13.50;6.77;;;;;;;6.78;45.03;99818.50;5051070;28;20017;-71
2024/01/17 04:05:41;;;;;;;11.67;5.33;;;;;;;6.70;44.54;99818.56;5049138;28;20494;-71
2024/01/17 04:08:07;;;;;;;13.70;6.07;;;;;;;6.26;45.39;99818.16;5050390;28;20693;-71
2024/01/17 04:10:33;;;;;;;11.90;6.50;;;;;;;6.27;45.55;99809.47;5048300;28;20021;-71
2024/01/17 04:13:00;;;;;;;12.93;5.70;;;;;;;6.23;45.85;99805.16;5049463;28;20291;-70
2024/01/17 04:15:25;;;;;;;10.33;5.30;;;;;;;5.99;46.41;99806.25;5045474;28;20543;-71
2024/01/17 04:17:51;;;;;;;18.57;6.60;;;;;;;5.78;46.77;99794.25;5044135;28;20303;-71
2024/01/17 04:20:16;;;;;;;13.27;5.77;;;;;;;5.28;47.91;99779.88;5050397;28;20104;-71
2024/01/17 04:22:41;;;;;;;15.77;7.07;;;;;;;5.78;47.18;99774.38;5049892;28;20021;-70
2024/01/17 04:25:07;;;;;;;12.07;5.57;;;;;;;5.38;47.53;99766.00;5049988;28;20502;-71
2024/01/17 04:27:33;;;;;;;16.73;6.73;;;;;;;4.98;48.55;99768.78;5050072;28;20104;-71
2024/01/17 04:29:58;;;;;;;20.10;7.93;;;;;;;5.15;48.61;99761.81;5050445;28;20058;-71
2024/01/17 04:32:28;;;;;;;13.20;6.43;;;;;;;5.46;47.83;99760.78;5049848;28;20021;-71
2024/01/17 04:34:54;;;;;;;11.10;6.40;;;;;;;5.68;47.45;99761.50;5048506;28;20033;-70
2024/01/17 04:37:19;;;;;;;12.77;6.50;;;;;;;5.22;47.72;99757.44;5049073;28;20278;-71
2024/01/17 04:39:44;;;;;;;10.60;5.70;;;;;;;5.68;47.01;99756.31;5051906;28;20539;-71
2024/01/17 04:42:10;;;;;;;14.80;5.73;;;;;;;5.68;46.74;99745.94;5054486;28;20040;-71
2024/01/17 04:44:35;;;;;;;13.07;5.70;;;;;;;5.89;46.61;99748.38;5052642;28;20063;-70
2024/01/17 04:47:00;;;;;;;16.30;7.07;;;;;;;5.42;47.84;99736.59;5053354;28;20084;-70
2024/01/17 04:49:27;;;;;;;16.73;6.57;;;;;;;6.46;45.70;99731.44;5054199;28;20556;-70
2024/01/17 04:51:53;;;;;;;14.63;6.20;;;;;;;5.88;46.64;99733.66;5053487;28;20111;-70
2024/01/17 04:54:20;;;;;;;13.80;7.40;;;;;;;5.85;46.33;99728.50;5053601;28;20287;-70
2024/01/17 04:56:45;;;;;;;15.33;6.13;;;;;;;5.61;47.57;99720.03;5054056;28;20271;-70
2024/01/17 04:59:11;;;;;;;15.70;6.70;;;;;;;6.02;46.88;99714.56;5054114;28;20047;-70
2024/01/17 05:01:36;;;;;;;23.47;6.60;;;;;;;5.41;47.29;99706.34;5053134;28;20025;-70
2024/01/17 05:04:02;;;;;;;14.40;6.77;;;;;;;5.62;47.90;99692.41;5054568;28;20025;-70
2024/01/17 05:06:34;;;;;;;12.90;6.23;;;;;;;5.81;46.91;99689.63;5054016;28;20321;-70
2024/01/17 05:09:00;;;;;;;26.48;7.10;;;;;;;6.05;46.22;99686.84;5054139;28;20021;-71
2024/01/17 05:11:27;;;;;;;13.33;6.63;;;;;;;5.96;46.27;99684.31;5054343;28;20500;-71
2024/01/17 05:13:52;;;;;;;16.33;6.63;;;;;;;6.65;45.16;99674.06;5052921;28;20040;-71
2024/01/17 05:16:18;;;;;;;16.80;7.37;;;;;;;6.92;44.53;99660.75;5054210;28;20037;-70
2024/01/17 05:18:43;;;;;;;13.63;6.10;;;;;;;6.65;44.88;99661.09;5053341;28;20048;-69
2024/01/17 05:21:09;;;;;;;16.60;7.10;;;;;;;6.50;44.61;99652.63;5053405;28;20029;-70
2024/01/17 05:23:34;;;;;;;19.87;6.70;;;;;;;5.61;47.23;99657.81;5053750;28;20025;-70
2024/01/17 05:25:59;;;;;;;18.97;5.17;;;;;;;6.24;45.76;99646.00;5049763;28;20400;-71
2024/01/17 05:28:25;;;;;;;12.50;5.00;;;;;;;6.04;45.61;99645.34;5051300;28;20033;-70
2024/01/17 05:30:50;;;;;;;16.67;5.50;;;;;;;5.77;46.13;99647.31;5053354;28;20043;-70
2024/01/17 05:33:16;;;;;;;15.80;6.37;;;;;;;6.32;45.27;99625.16;5054416;28;20024;-70
2024/01/17 05:35:41;;;;;;;13.57;6.93;;;;;;;5.69;46.19;99633.56;5050923;28;20102;-70
2024/01/17 05:38:07;;;;;;;16.37;6.50;;;;;;;6.49;44.67;99635.31;5053606;28;20090;-70
2024/01/17 05:40:32;;;;;;;17.00;6.13;;;;;;;6.57;44.18;99628.31;5053362;28;20029;-70
2024/01/17 05:43:01;;;;;;;14.10;6.23;;;;;;;5.99;45.37;99624.66;5052994;28;20025;-71
2024/01/17 05:45:26;;;;;;;10.03;5.80;;;;;;;6.62;44.50;99623.03;5052311;28;20048;-70
2024/01/17 05:47:51;;;;;;;13.13;5.90;;;;;;;6.22;45.55;99623.53;5052966;28;20497;-70
2024/01/17 05:50:17;;;;;;;14.10;6.40;;;;;;;6.84;43.76;99622.75;5052670;28;20060;-71
2024/01/17 05:52:43;;;;;;;9.50;5.47;;;;;;;7.10;43.21;99614.56;5052084;28;20024;-70
2024/01/17 05:55:09;;;;;;;16.97;6.63;;;;;;;6.94;43.73;99617.41;5052032;28;20032;-70
2024/01/17 05:57:38;;;;;;;10.30;5.00;;;;;;;6.35;45.03;99614.72;5052268;28;20032;-70
2024/01/17 06:00:07;;;;;;;10.50;5.60;;;;;;;7.16;43.50;99609.31;5044419;28;20098;-70
2024/01/17 06:02:34;;;;;;;22.70;6.30;;;;;;;7.61;42.26;99601.63;5052118;28;20029;-69
2024/01/17 06:05:00;;;;;;;16.13;6.77;;;;;;;7.24;42.65;99607.44;5037393;28;20036;-71
2024/01/17 06:07:25;;;;;;;15.10;6.83;;;;;;;7.76;41.81;99589.22;5050765;28;20025;-70
2024/01/17 06:09:51;;;;;;;12.87;7.57;;;;;;;7.42;42.33;99590.69;5051587;28;20032;-70
2024/01/17 06:12:16;;;;;;;14.07;6.47;;;;;;;7.25;42.86;99583.16;5052062;28;20060;-70
2024/01/17 06:14:42;;;;;;;12.97;5.87;;;;;;;7.42;43.27;99579.44;5051175;28;20083;-70
2024/01/17 06:17:08;;;;;;;18.47;6.30;;;;;;;8.00;41.64;99577.50;5051718;28;20056;-70
2024/01/17 06:19:33;;;;;;;11.10;6.23;;;;;;;7.81;41.33;99572.63;5052141;28;20021;-70
2024/01/17 06:22:00;;;;;;;14.93;6.77;;;;;;;7.62;42.20;99579.06;5053278;28;20017;-70
2024/01/17 06:24:25;;;;;;;14.17;6.63;;;;;;;7.51;42.11;99573.22;5052638;28;20059;-70
2024/01/17 06:26:50;;;;;;;18.73;6.83;;;;;;;7.66;42.00;99580.72;5051891;28;20057;-71
2024/01/17 06:29:16;;;;;;;13.83;6.40;;;;;;;7.53;41.33;99582.69;5052079;28;20028;-70
2024/01/17 06:31:41;;;;;;;10.67;5.87;;;;;;;7.14;42.23;99577.25;5051982;28;20094;-70
2024/01/17 06:34:07;;;;;;;14.50;5.83;;;;;;;7.16;43.10;99578.13;5052560;28;20033;-70
2024/01/17 06:36:32;;;;;;;12.53;5.77;;;;;;;6.61;43.75;99575.44;5051342;28;20032;-70
2024/01/17 06:38:58;;;;;;;10.03;6.07;;;;;;;7.31;42.25;99577.00;5052127;28;20776;-70
2024/01/17 06:41:24;;;;;;;16.23;6.80;;;;;;;6.65;43.08;99560.69;5050616;28;20031;-70
2024/01/17 06:43:49;;;;;;;10.63;6.13;;;;;;;6.88;43.71;99557.75;5052136;28;20108;-69
2024/01/17 06:46:15;;;;;;;9.97;5.53;;;;;;;6.67;42.77;99547.69;5050928;28;20057;-70
2024/01/17 06:48:40;;;;;;;17.07;7.20;;;;;;;6.69;43.61;99535.53;5047208;28;20029;-69
2024/01/17 06:51:06;;;;;;;16.17;6.37;;;;;;;6.46;43.85;99539.31;5032687;28;20038;-70
2024/01/17 06:53:31;;;;;;;13.13;6.00;;;;;;;7.04;43.32;99526.34;5034858;28;20025;-70
2024/01/17 06:55:57;;;;;;;15.53;6.70;;;;;;;7.00;42.54;99529.88;5052251;28;20040;-69
2024/01/17 06:58:22;;;;;;;10.97;5.60;;;;;;;6.64;43.25;99521.78;5050752;28;20104;-69
2024/01/17 07:00:48;;;;;;;12.87;6.33;;;;;;;6.47;43.55;99522.88;5046719;28;20529;-70
2024/01/17 07:03:13;;;;;;;9.27;5.90;;;;;;;6.78;43.05;99509.41;5049918;28;20033;-69
2024/01/17 07:05:39;;;;;;;18.00;5.67;;;;;;;5.65;45.69;99521.25;5049257;28;20503;-70
2024/01/17 07:08:05;;;;;;;14.90;6.40;;;;;;;5.82;45.11;99505.50;5046244;28;20568;-69
2024/01/17 07:10:31;;;;;;;12.93;5.63;;;;;;;6.18;44.79;99507.69;5051050;28;20032;-70
2024/01/17 07:12:56;;;;;;;15.27;6.40;;;;;;;5.83;45.22;99503.78;5051965;28;20381;-70
2024/01/17 07:15:22;;;;;;;16.83;6.73;;;;;;;7.20;42.81;99501.81;5048294;28;20055;-69
2024/01/17 07:17:47;;;;;;;18.23;6.80;;;;;;;6.78;43.17;99505.06;5041045;28;20025;-70
2024/01/17 07:20:13;;;;;;;8.97;5.50;;;;;;;6.41;44.16;99499.59;5041834;28;20474;-70
2024/01/17 07:22:42;;;;;;;13.90;6.80;;;;;;;6.84;43.86;99493.75;5043192;28;20025;-70
2024/01/17 07:25:08;;;;;;;8.53;4.60;;;;;;;7.11;42.70;99486.38;5049587;28;20275;-69
2024/01/17 07:27:34;;;;;;;17.33;5.73;;;;;;;7.10;42.40;99479.44;5050395;28;20028;-70
2024/01/17 07:29:59;;;;;;;16.13;6.90;;;;;;;7.16;42.62;99484.56;5051055;28;20276;-69
2024/01/17 07:32:25;;;;;;;7.73;5.00;;;;;;;7.34;42.06;99479.91;5051561;28;20382;-70
2024/01/17 07:34:50;;;;;;;18.37;6.33;;;;;;;7.10;42.27;99479.44;5050426;28;20531;-70
2024/01/17 07:37:15;;;;;;;10.57;5.27;;;;;;;7.35;41.64;99476.41;5051837;28;20025;-70
2024/01/17 07:39:43;;;;;;;16.87;5.67;;;;;;;7.00;42.70;99472.72;5051057;28;20032;-70
2024/01/17 07:42:08;;;;;;;25.50;6.30;;;;;;;7.43;41.38;99478.00;5046322;28;20393;-70
2024/01/17 07:44:34;;;;;;;8.77;5.23;;;;;;;7.20;42.25;99487.94;5050099;28;20021;-71
2024/01/17 07:46:59;;;;;;;15.30;5.53;;;;;;;7.45;42.04;99485.78;5046422;28;20512;-70
2024/01/17 07:49:24;;;;;;;11.27;5.80;;;;;;;7.75;42.06;99483.47;5048548;28;20546;-70
2024/01/17 07:51:50;;;;;;;10.87;6.37;;;;;;;8.07;40.83;99476.75;5049432;28;20028;-70
2024/01/17 07:54:16;;;;;;;10.03;5.47;;;;;;;8.19;41.02;99476.47;5050035;28;20024;-70
2024/01/17 07:56:42;;;;;;;21.83;6.03;;;;;;;8.01;41.09;99475.13;5049556;28;20059;-70
2024/01/17 07:59:07;;;;;;;14.77;5.37;;;;;;;7.23;42.25;99470.56;5051019;28;20428;-70
2024/01/17 08:01:32;;;;;;;14.00;5.33;;;;;;;7.38;42.01;99468.59;5046007;28;20029;-70
2024/01/17 08:03:58;;;;;;;13.33;5.97;;;;;;;7.88;41.37;99469.31;5029545;28;20023;-70
2024/01/17 08:06:23;;;;;;;12.67;6.17;;;;;;;6.90;42.69;99451.22;5030592;28;20037;-70
2024/01/17 08:08:48;;;;;;;12.63;4.60;;;;;;;7.12;42.83;99451.72;5029790;28;20030;-70
2024/01/17 08:11:14;;;;;;;9.60;5.63;;;;;;;7.30;42.86;99440.97;5044701;28;20037;-70
2024/01/17 08:13:39;;;;;;;12.57;6.47;;;;;;;7.43;42.39;99451.13;5044979;28;20030;-70
2024/01/17 08:16:05;;;;;;;14.20;5.40;;;;;;;7.91;41.26;99448.44;5044113;28;20116;-70
2024/01/17 08:18:31;;;;;;;11.17;6.50;;;;;;;7.46;41.77;99436.34;5049990;28;20029;-70
2024/01/17 08:20:57;;;;;;;17.73;5.90;;;;;;;7.63;42.23;99435.16;5051179;28;20067;-70
2024/01/17 08:23:22;;;;;;;8.73;5.00;;;;;;;7.23;42.91;99430.72;5049767;28;20017;-70
2024/01/17 08:25:48;;;;;;;13.10;5.33;;;;;;;7.83;41.99;99429.53;5049896;28;20033;-70
2024/01/17 08:28:13;;;;;;;8.30;5.17;;;;;;;8.04;41.65;99427.38;5049876;28;20032;-70
2024/01/17 08:30:39;;;;;;;18.83;5.57;;;;;;;8.20;40.76;99428.75;5048456;28;20025;-70
2024/01/17 08:33:04;;;;;;;9.37;4.90;;;;;;;7.62;41.89;99425.63;5049342;28;20033;-70
2024/01/17 08:35:30;;;;;;;11.73;5.47;;;;;;;7.80;41.80;99413.97;5050539;28;20033;-69
2024/01/17 08:37:55;;;;;;;14.20;6.03;;;;;;;7.98;41.50;99412.72;5049266;28;20456;-70
2024/01/17 08:40:21;;;;;;;11.03;5.90;;;;;;;7.76;41.37;99409.72;5050786;28;20112;-70
2024/01/17 08:42:46;;;;;;;10.43;5.57;;;;;;;7.87;41.75;99415.59;5049438;28;20039;-70
2024/01/17 08:45:12;;;;;;;12.17;5.93;;;;;;;7.41;42.09;99412.16;5048929;28;20029;-70
2024/01/17 08:47:38;;;;;;;15.53;4.97;;;;;;;8.11;41.00;99410.72;5050316;28;20056;-70
2024/01/17 08:50:04;;;;;;;10.23;5.20;;;;;;;8.03;41.86;99404.84;5049503;28;20476;-70
2024/01/17 08:52:30;;;;;;;12.17;4.90;;;;;;;7.30;42.44;99406.31;5047792;28;20136;-71
2024/01/17 08:54:55;;;;;;;11.63;5.43;;;;;;;7.92;41.86;99411.13;5049562;28;20550;-70
2024/01/17 08:57:20;;;;;;;10.47;4.83;;;;;;;7.24;43.50;99396.91;5049561;28;20029;-70
2024/01/17 08:59:46;;;;;;;11.23;5.30;;;;;;;7.09;43.23;99394.59;5049682;28;20021;-70
2024/01/17 09:02:11;;;;;;;14.50;5.37;;;;;;;7.88;41.59;99396.47;5051024;28;20473;-70
2024/01/17 09:04:40;;;;;;;13.17;4.93;;;;;;;7.64;41.57;99390.91;5050248;28;20045;-70
2024/01/17 09:07:06;;;;;;;10.43;4.63;;;;;;;7.34;43.01;99383.75;5048569;28;20029;-70
2024/01/17 09:09:31;;;;;;;12.83;5.70;;;;;;;6.73;44.03;99381.38;5049848;28;20108;-70
2024/01/17 09:11:57;;;;;;;10.87;4.93;;;;;;;6.69;43.49;99384.91;5045727;28;20053;-70
2024/01/17 09:14:24;;;;;;;10.80;5.50;;;;;;;6.86;43.85;99372.50;5032682;28;20127;-70
2024/01/17 09:16:52;;;;;;;10.70;4.83;;;;;;;6.99;42.90;99373.09;5049728;28;20029;-70
2024/01/17 09:19:20;;;;;;;11.93;5.40;;;;;;;8.20;41.30;99366.28;5050822;28;20071;-70
2024/01/17 09:21:46;;;;;;;10.67;5.30;;;;;;;7.97;41.27;99365.03;5049453;28;20112;-70
2024/01/17 09:24:12;;;;;;;12.63;5.27;;;;;;;7.96;41.17;99358.13;5049492;28;20451;-70
2024/01/17 09:26:37;;;;;;;10.27;5.10;;;;;;;8.28;40.80;99358.25;5053907;28;20112;-70
2024/01/17 09:29:03;;;;;;;10.73;5.43;;;;;;;8.16;41.47;99349.00;5053165;28;20035;-70
2024/01/17 09:31:29;;;;;;;12.83;5.63;;;;;;;7.42;42.74;99345.44;5053905;28;20503;-71
2024/01/17 09:33:57;;;;;;;8.10;5.30;;;;;;;7.64;42.47;99346.69;5053758;28;20028;-70
2024/01/17 09:36:22;;;;;;;15.83;5.67;;;;;;;7.70;41.89;99344.84;5054318;28;20021;-71
2024/01/17 09:38:47;;;;;;;11.47;5.10;;;;;;;8.03;41.35;99337.16;5053862;28;20436;-71
2024/01/17 09:41:13;;;;;;;11.73;4.80;;;;;;;9.07;39.88;99333.69;5053264;28;20021;-71
2024/01/17 09:43:39;;;;;;;13.10;5.50;;;;;;;7.72;41.57;99335.25;5053410;28;20021;-70
2024/01/17 09:46:11;;;;;;;10.67;5.57;;;;;;;8.02;40.65;99333.69;5054033;28;20388;-71
2024/01/17 09:48:38;;;;;;;17.88;4.88;;;;;;;8.30;41.41;99330.44;5048140;28;20107;-70
2024/01/17 09:51:04;;;;;;;12.30;5.00;;;;;;;8.87;39.79;99336.81;5034191;28;20026;-71
2024/01/17 09:53:31;;;;;;;11.30;5.07;;;;;;;8.68;40.30;99330.41;5064104;28;20056;-70
2024/01/17 09:55:59;;;;;;;16.30;5.43;;;;;;;8.92;40.63;99321.91;5053255;28;20071;-71
2024/01/17 09:58:26;;;;;;;15.57;5.83;;;;;;;8.42;40.38;99318.84;5053602;28;20025;-70
2024/01/17 10:00:54;;;;;;;11.37;5.30;;;;;;;8.14;41.91;99329.97;5052954;28;20056;-70
2024/01/17 10:03:20;;;;;;;11.57;5.03;;;;;;;8.44;41.15;99330.09;5052535;28;20075;-71
2024/01/17 10:05:51;;;;;;;12.40;5.37;;;;;;;9.25;40.27;99331.47;5053197;28;20027;-70
2024/01/17 10:08:18;;;;;;;11.67;5.40;;;;;;;9.80;38.21;99323.75;5053482;28;20066;-70
2024/01/17 10:10:44;;;;;;;10.20;5.13;;;;;;;9.83;38.39;99321.03;5051036;28;20374;-71
2024/01/17 10:13:11;;;;;;;9.67;4.97;;;;;;;8.45;40.57;99318.84;5052127;28;20105;-71
2024/01/17 10:15:50;;;;;;;12.17;5.23;;;;;;;9.15;40.05;99318.69;5053134;28;20045;-71
2024/01/17 10:18:15;;;;;;;11.03;5.37;;;;;;;9.14;39.30;99316.13;5068021;28;20025;-71
2024/01/17 10:20:42;;;;;;;14.53;4.87;;;;;;;9.75;38.84;99313.44;5051554;28;20020;-71
2024/01/17 10:23:07;;;;;;;13.27;4.73;;;;;;;9.56;38.13;99305.34;5050699;28;20051;-70
2024/01/17 10:25:45;;;;;;;15.37;5.13;;;;;;;8.91;39.78;99296.75;5052496;28;20025;-71
2024/01/17 10:28:11;;;;;;;8.90;4.87;;;;;;;9.75;37.94;99296.94;5052864;28;20036;-71
2024/01/17 10:30:37;;;;;;;13.17;4.70;;;;;;;10.07;37.58;99285.50;5051931;28;20476;-71
2024/01/17 10:33:03;;;;;;;9.97;5.67;;;;;;;9.28;38.28;99295.72;5052741;28;20029;-70
2024/01/17 10:35:30;;;;;;;9.80;5.53;;;;;;;9.72;37.77;99282.22;5051142;28;20017;-71
2024/01/17 10:37:56;;;;;;;11.10;4.60;;;;;;;9.96;37.62;99283.22;5050022;28;20040;-71
2024/01/17 10:40:22;;;;;;;8.90;4.13;;;;;;;10.12;37.20;99280.09;5052181;28;20024;-70
2024/01/17 10:43:02;;;;;;;9.47;4.70;;;;;;;10.25;38.13;99284.03;5051024;28;20021;-70
2024/01/17 10:45:34;;;;;;;20.60;6.43;;;;;;;10.45;37.43;99274.69;5050990;28;20025;-71
2024/01/17 10:48:00;;;;;;;10.85;4.95;;;;;;;10.27;37.57;99274.38;5052669;28;20506;-71
2024/01/17 10:50:26;;;;;;;9.73;5.40;;;;;;;9.92;37.82;99276.38;5052787;28;20029;-70
2024/01/17 10:52:56;;;;;;;10.37;5.47;;;;;;;9.59;38.07;99271.34;5046724;28;20029;-70
2024/01/17 10:55:26;;;;;;;15.67;5.33;;;;;;;10.51;37.18;99258.81;5031408;28;20503;-71
2024/01/17 10:57:57;;;;;;;10.17;5.10;;;;;;;9.55;37.93;99246.25;5033719;28;20116;-70
2024/01/17 11:00:29;;;;;;;13.27;5.63;;;;;;;9.87;38.32;99246.97;5050241;28;20032;-71
2024/01/17 11:02:56;;;;;;;8.05;5.05;;;;;;;10.18;37.76;99240.75;5051959;28;20051;-70
2024/01/17 11:05:25;;;;;;;12.30;4.90;;;;;;;8.82;39.09;99250.13;5050083;28;20473;-71
2024/01/17 11:07:53;;;;;;;17.17;5.57;;;;;;;9.39;39.09;99245.84;5051553;28;20043;-71
2024/01/17 11:10:19;;;;;;;11.70;5.17;;;;;;;9.03;39.54;99247.81;5052282;28;20028;-71
2024/01/17 11:12:45;;;;;;;11.27;4.77;;;;;;;9.23;38.92;99240.25;5050851;28;20048;-70
2024/01/17 11:15:11;;;;;;;11.53;5.53;;;;;;;8.96;39.14;99240.16;5051971;28;20033;-70
2024/01/17 11:17:37;;;;;;;18.10;5.23;;;;;;;9.23;38.55;99240.25;5051583;28;20059;-71
2024/01/17 11:20:08;;;;;;;10.97;4.97;;;;;;;8.74;40.05;99232.09;5051220;28;20403;-70
2024/01/17 11:22:38;;;;;;;10.13;4.90;;;;;;;8.94;39.75;99234.16;5046526;28;20500;-71
2024/01/17 11:25:32;;;;;;;9.13;4.37;;;;;;;9.52;38.64;99230.69;5049796;28;20027;-70
2024/01/17 11:27:59;;;;;;;8.80;4.93;;;;;;;8.63;39.95;99229.78;5050986;28;20028;-70